Time;durP1;ratioP1;P1;durP2;ratioP2;P2;SDS_P1;SDS_P2;PMS_P1;PMS_P2;Temp;Humidity;BMP_temperature;BMP_pressure;BME280_temperature;BME280_humidity;BME280_pressure;Samples;Min_cycle;Max_cycle;Signal;HPM_P1;HPM_P2
2021/12/17 00:04:39;;;;;;;36.58;19.95;;;;;;;;;;5063363;28;20052;-78
2021/12/17 00:07:06;;;;;;;43.65;20.83;;;;;;;;;;5048753;28;20518;-80
2021/12/17 00:09:32;;;;;;;37.70;20.10;;;;;;;;;;5050267;28;20095;-78
2021/12/17 00:11:59;;;;;;;38.30;20.10;;;;;;;;;;5049166;28;20089;-77
2021/12/17 00:14:28;;;;;;;40.10;19.65;;;;;;;;;;5050997;28;20081;-78
2021/12/17 00:16:57;;;;;;;39.65;20.25;;;;;;;;;;5046895;28;20088;-80
2021/12/17 00:44:19;;;;;;;41.80;21.00;;;;;;;;;;5071783;28;20546;-79
2021/12/17 00:49:20;;;;;;;41.55;20.88;;;;;;;;;;5067429;28;20029;-79
2021/12/17 00:54:22;;;;;;;39.15;20.67;;;;;;;;;;5074871;28;20060;-78
2021/12/17 00:56:53;;;;;;;38.97;20.73;;;;;;;;;;5063997;28;20053;-80
2021/12/17 00:59:20;;;;;;;39.60;20.38;;;;;;;;;;5067488;28;20516;-79
2021/12/17 01:01:47;;;;;;;45.85;22.00;;;;;;;;;;5071373;28;20539;-80
2021/12/17 01:04:14;;;;;;;41.80;21.58;;;;;;;;;;5072451;28;20049;-79
2021/12/17 01:06:41;;;;;;;43.28;21.33;;;;;;;;;;5053787;28;20053;-79
2021/12/17 01:09:10;;;;;;;45.13;20.85;;;;;;;;;;5049820;28;20112;-81
2021/12/17 01:11:36;;;;;;;42.22;20.20;;;;;;;;;;5061428;28;20060;-79
2021/12/17 01:14:03;;;;;;;41.95;21.08;;;;;;;;;;5049218;28;20866;-81
2021/12/17 01:16:30;;;;;;;42.30;20.25;;;;;;;;;;5054853;28;20061;-80
2021/12/17 01:21:38;;;;;;;39.97;19.60;;;;;;;;;;5070621;28;20148;-80
2021/12/17 01:24:16;;;;;;;39.22;19.20;;;;;;;;;;5049281;28;20064;-80
2021/12/17 01:42:29;;;;;;;42.17;20.30;;;;;;;;;;4998127;28;20067;-80
2021/12/17 01:44:56;;;;;;;46.92;20.60;;;;;;;;;;4989955;28;20086;-79
2021/12/17 01:47:22;;;;;;;53.28;21.80;;;;;;;;;;4980425;28;20046;-80
2021/12/17 02:00:39;;;;;;;64.13;22.33;;;;;;;;;;4984552;28;20065;-80
2021/12/17 02:03:07;;;;;;;61.72;23.02;;;;;;;;;;4973256;28;20065;-80
2021/12/17 02:05:34;;;;;;;68.00;24.73;;;;;;;;;;4990901;28;20532;-80
2021/12/17 02:08:01;;;;;;;68.75;24.17;;;;;;;;;;4973597;28;20141;-80
2021/12/17 02:19:24;;;;;;;84.82;26.38;;;;;;;;;;4991060;28;20046;-80
2021/12/17 02:29:58;;;;;;;105.93;34.50;;;;;;;;;;4989969;28;20920;-80
2021/12/17 02:32:27;;;;;;;111.60;33.85;;;;;;;;;;4987836;28;20058;-80
2021/12/17 02:37:31;;;;;;;113.28;33.25;;;;;;;;;;4990108;28;20055;-80
2021/12/17 02:45:35;;;;;;;103.95;31.42;;;;;;;;;;4990276;28;20055;-80
2021/12/17 02:48:04;;;;;;;109.20;31.15;;;;;;;;;;4984831;28;20067;-80
2021/12/17 02:50:31;;;;;;;103.18;32.13;;;;;;;;;;4972667;28;20086;-80
2021/12/17 02:52:58;;;;;;;101.50;31.17;;;;;;;;;;4978417;28;20118;-79
2021/12/17 02:55:24;;;;;;;104.55;30.75;;;;;;;;;;4981794;28;20038;-79
2021/12/17 02:57:51;;;;;;;98.88;31.17;;;;;;;;;;4990237;28;20102;-79
2021/12/17 03:00:18;;;;;;;91.20;30.73;;;;;;;;;;4991446;28;20510;-79
2021/12/17 03:02:46;;;;;;;65.43;24.30;;;;;;;;;;4970272;28;20100;-80
2021/12/17 03:05:13;;;;;;;79.68;28.00;;;;;;;;;;4980535;28;20074;-79
2021/12/17 03:07:42;;;;;;;80.63;27.20;;;;;;;;;;4972459;28;20082;-79
2021/12/17 03:10:11;;;;;;;85.35;28.35;;;;;;;;;;4972160;28;20951;-80
2021/12/17 03:12:56;;;;;;;92.85;29.02;;;;;;;;;;4972898;28;20540;-80
2021/12/17 03:23:27;;;;;;;77.72;25.55;;;;;;;;;;4990121;28;20456;-80
2021/12/17 03:25:53;;;;;;;83.13;27.80;;;;;;;;;;4973526;28;20078;-80
2021/12/17 03:28:20;;;;;;;78.22;27.98;;;;;;;;;;4977624;28;20059;-79
2021/12/17 03:30:47;;;;;;;79.45;27.58;;;;;;;;;;4988948;28;20108;-80
2021/12/17 03:33:13;;;;;;;73.38;25.83;;;;;;;;;;4990025;28;20488;-79
2021/12/17 03:35:40;;;;;;;78.38;26.73;;;;;;;;;;4989538;28;20055;-79
2021/12/17 03:38:07;;;;;;;81.95;26.13;;;;;;;;;;4971558;28;20090;-80
2021/12/17 03:40:34;;;;;;;84.88;26.25;;;;;;;;;;4969790;28;20114;-80
2021/12/17 03:43:03;;;;;;;87.47;26.50;;;;;;;;;;4980693;28;20051;-80
2021/12/17 03:45:30;;;;;;;84.15;27.55;;;;;;;;;;4970965;28;20135;-79
2021/12/17 03:47:57;;;;;;;72.05;23.65;;;;;;;;;;4978966;28;20629;-80
2021/12/17 03:50:23;;;;;;;80.25;24.70;;;;;;;;;;4971740;28;20059;-80
2021/12/17 03:52:50;;;;;;;83.32;25.20;;;;;;;;;;4971027;28;20341;-80
2021/12/17 03:55:16;;;;;;;88.35;26.90;;;;;;;;;;4973128;28;20057;-79
2021/12/17 03:57:43;;;;;;;76.75;23.70;;;;;;;;;;4971701;28;20559;-80
2021/12/17 04:00:10;;;;;;;63.53;21.10;;;;;;;;;;4989678;28;20539;-80
2021/12/17 04:02:37;;;;;;;74.20;23.65;;;;;;;;;;4971329;28;20106;-79
2021/12/17 04:05:03;;;;;;;82.25;25.00;;;;;;;;;;4971134;28;20055;-80
2021/12/17 04:07:30;;;;;;;75.20;22.77;;;;;;;;;;4972203;28;20102;-79
2021/12/17 04:09:56;;;;;;;76.20;23.08;;;;;;;;;;4989346;28;20090;-80
2021/12/17 04:12:36;;;;;;;71.07;21.85;;;;;;;;;;4971715;28;20086;-78
2021/12/17 04:15:04;;;;;;;65.85;21.00;;;;;;;;;;4989853;28;20097;-80
2021/12/17 04:17:38;;;;;;;50.13;19.25;;;;;;;;;;4993061;28;20054;-80
2021/12/17 04:20:05;;;;;;;55.75;19.42;;;;;;;;;;4975387;28;20487;-80
2021/12/17 04:22:31;;;;;;;62.83;19.67;;;;;;;;;;4976119;28;20050;-79
2021/12/17 04:24:58;;;;;;;52.13;17.88;;;;;;;;;;4971770;28;20090;-79
2021/12/17 04:27:24;;;;;;;49.92;18.52;;;;;;;;;;4986368;28;20054;-80
2021/12/17 04:29:51;;;;;;;53.67;18.77;;;;;;;;;;4993529;28;20212;-79
2021/12/17 04:32:19;;;;;;;60.47;18.90;;;;;;;;;;4975165;28;20101;-79
2021/12/17 04:34:46;;;;;;;54.83;18.20;;;;;;;;;;4976273;28;20051;-80
2021/12/17 04:37:12;;;;;;;55.83;19.02;;;;;;;;;;4992387;28;20123;-80
2021/12/17 04:39:39;;;;;;;50.70;17.38;;;;;;;;;;4975894;28;20079;-81
2021/12/17 04:42:13;;;;;;;52.50;16.67;;;;;;;;;;4989415;28;20110;-80
2021/12/17 04:44:48;;;;;;;54.75;16.42;;;;;;;;;;4975828;28;20109;-80
2021/12/17 04:57:42;;;;;;;44.85;14.93;;;;;;;;;;4986508;28;20055;-80
2021/12/17 05:00:21;;;;;;;52.60;15.02;;;;;;;;;;4974193;28;20141;-79
2021/12/17 05:02:50;;;;;;;48.38;15.20;;;;;;;;;;4974066;28;20094;-79
2021/12/17 05:05:19;;;;;;;46.15;14.20;;;;;;;;;;4991315;28;20141;-79
2021/12/17 05:07:51;;;;;;;38.58;14.18;;;;;;;;;;4981985;28;20177;-80
2021/12/17 05:18:28;;;;;;;31.42;10.60;;;;;;;;;;4992012;28;20327;-80
2021/12/17 05:20:57;;;;;;;34.17;11.15;;;;;;;;;;4972429;28;20215;-80
2021/12/17 05:23:30;;;;;;;36.78;12.05;;;;;;;;;;4983449;28;20051;-80
2021/12/17 05:25:57;;;;;;;37.38;11.25;;;;;;;;;;4982121;28;20113;-80
2021/12/17 05:28:23;;;;;;;36.40;10.48;;;;;;;;;;4973944;28;20110;-80
2021/12/17 05:30:50;;;;;;;37.70;10.38;;;;;;;;;;4971207;28;20058;-80
2021/12/17 05:33:18;;;;;;;30.30;8.93;;;;;;;;;;4991362;28;20112;-85
2021/12/17 05:35:45;;;;;;;29.52;8.90;;;;;;;;;;4992315;28;20215;-80
2021/12/17 05:38:12;;;;;;;24.95;8.38;;;;;;;;;;4969255;28;20082;-79
2021/12/17 05:40:39;;;;;;;27.58;8.52;;;;;;;;;;4969735;28;20079;-80
2021/12/17 05:43:06;;;;;;;28.88;9.40;;;;;;;;;;4978720;28;20595;-80
2021/12/17 05:48:09;;;;;;;31.27;9.40;;;;;;;;;;4990485;28;20086;-80
2021/12/17 05:50:38;;;;;;;25.83;8.77;;;;;;;;;;5000619;28;20039;-80
2021/12/17 05:53:04;;;;;;;25.92;8.68;;;;;;;;;;4974069;28;20051;-79
2021/12/17 05:55:31;;;;;;;35.42;9.60;;;;;;;;;;4973494;28;20086;-80
2021/12/17 05:58:01;;;;;;;29.77;8.85;;;;;;;;;;4970989;28;20051;-81
2021/12/17 06:00:31;;;;;;;28.63;8.20;;;;;;;;;;4965689;28;20050;-79
2021/12/17 06:02:58;;;;;;;23.10;8.23;;;;;;;;;;4972291;28;20081;-79
2021/12/17 06:05:25;;;;;;;30.83;9.27;;;;;;;;;;4971015;28;20258;-80
2021/12/17 06:07:52;;;;;;;29.52;9.23;;;;;;;;;;4971885;28;20967;-81
2021/12/17 06:10:18;;;;;;;28.40;8.73;;;;;;;;;;4971951;28;20058;-80
2021/12/17 06:12:45;;;;;;;27.50;8.80;;;;;;;;;;4980827;28;20043;-81
2021/12/17 06:15:20;;;;;;;28.30;9.18;;;;;;;;;;4967032;28;20058;-80
2021/12/17 06:17:48;;;;;;;31.10;8.85;;;;;;;;;;4973366;28;20202;-80
2021/12/17 06:20:15;;;;;;;31.60;9.55;;;;;;;;;;4971134;28;20812;-80
2021/12/17 06:22:41;;;;;;;35.28;9.45;;;;;;;;;;4999728;28;20160;-80
2021/12/17 06:25:10;;;;;;;35.30;8.77;;;;;;;;;;4991065;28;20089;-79
2021/12/17 06:27:37;;;;;;;27.90;8.63;;;;;;;;;;4965048;28;20055;-80
2021/12/17 06:30:05;;;;;;;27.65;7.85;;;;;;;;;;4990156;28;20889;-80
2021/12/17 06:32:31;;;;;;;26.52;8.18;;;;;;;;;;4987506;28;20114;-79
2021/12/17 06:34:59;;;;;;;35.65;9.18;;;;;;;;;;4989325;28;20054;-80
2021/12/17 06:37:25;;;;;;;30.10;9.07;;;;;;;;;;4973082;28;20118;-80
2021/12/17 06:39:51;;;;;;;33.38;8.50;;;;;;;;;;4988319;28;22182;-80
2021/12/17 06:42:18;;;;;;;30.40;8.25;;;;;;;;;;4970437;28;20598;-80
2021/12/17 06:44:46;;;;;;;28.55;7.88;;;;;;;;;;4971538;28;20089;-80
2021/12/17 06:47:29;;;;;;;31.98;8.05;;;;;;;;;;4983414;28;20237;-79
2021/12/17 07:05:51;;;;;;;40.75;9.48;;;;;;;;;;4990448;28;20101;-79
2021/12/17 07:07:56;;;;;;;38.17;9.60;;;;;;;;;;4987121;28;20058;-79
2021/12/17 07:18:26;;;;;;;39.00;10.23;;;;;;;;;;4990410;28;20918;-78
2021/12/17 07:21:03;;;;;;;38.28;9.88;;;;;;;;;;4987320;28;20058;-78
2021/12/17 07:34:05;;;;;;;42.92;10.10;;;;;;;;;;4990874;28;20525;-78
2021/12/17 07:36:41;;;;;;;31.65;9.27;;;;;;;;;;4990923;28;20054;-77
2021/12/17 07:39:08;;;;;;;37.72;9.07;;;;;;;;;;4990365;28;20572;-77
2021/12/17 07:41:34;;;;;;;34.72;9.25;;;;;;;;;;4985700;28;20509;-77
2021/12/17 07:44:02;;;;;;;28.70;8.95;;;;;;;;;;4992563;28;20055;-77
2021/12/17 07:46:28;;;;;;;34.28;8.05;;;;;;;;;;4976976;28;20536;-78
2021/12/17 07:48:54;;;;;;;22.65;7.40;;;;;;;;;;4983469;28;20146;-78
2021/12/17 07:51:22;;;;;;;20.23;6.65;;;;;;;;;;4975380;28;20161;-80
2021/12/17 07:53:49;;;;;;;19.27;6.93;;;;;;;;;;4991109;28;20055;-77
2021/12/17 07:56:16;;;;;;;21.05;6.00;;;;;;;;;;4976983;28;20047;-78
2021/12/17 07:58:43;;;;;;;15.95;5.72;;;;;;;;;;4973829;28;20494;-77
2021/12/17 08:01:10;;;;;;;14.05;5.38;;;;;;;;;;4993933;28;20035;-77
2021/12/17 08:03:40;;;;;;;14.25;5.05;;;;;;;;;;4992118;28;20066;-78
2021/12/17 08:06:07;;;;;;;11.33;4.77;;;;;;;;;;4975588;28;20105;-77
2021/12/17 08:08:33;;;;;;;14.00;5.20;;;;;;;;;;4977026;28;20067;-78
2021/12/17 08:11:00;;;;;;;13.02;5.38;;;;;;;;;;5005067;28;20109;-78
2021/12/17 08:13:30;;;;;;;12.20;4.93;;;;;;;;;;4973692;28;20095;-77
2021/12/17 08:27:08;;;;;;;12.88;4.72;;;;;;;;;;4989134;28;20058;-78
2021/12/17 08:32:08;;;;;;;13.45;5.78;;;;;;;;;;4984474;28;20606;-80
2021/12/17 08:34:34;;;;;;;13.18;5.07;;;;;;;;;;4972771;28;20090;-77
2021/12/17 08:37:01;;;;;;;11.77;4.70;;;;;;;;;;4972667;28;20106;-78
2021/12/17 08:39:30;;;;;;;13.10;5.07;;;;;;;;;;4969963;28;20465;-75
2021/12/17 08:41:59;;;;;;;12.73;5.10;;;;;;;;;;4973116;28;20050;-77
2021/12/17 08:44:26;;;;;;;12.15;5.57;;;;;;;;;;4970811;28;20188;-77
2021/12/17 08:46:52;;;;;;;16.58;5.85;;;;;;;;;;4971523;28;20617;-78
2021/12/17 08:49:19;;;;;;;13.02;5.20;;;;;;;;;;4975022;28;20055;-78
2021/12/17 08:51:49;;;;;;;14.15;6.07;;;;;;;;;;4974520;28;20059;-77
2021/12/17 08:54:16;;;;;;;13.98;6.30;;;;;;;;;;4974763;28;20075;-78
2021/12/17 08:56:44;;;;;;;20.17;6.80;;;;;;;;;;4975703;28;20115;-78
2021/12/17 08:59:10;;;;;;;14.38;5.70;;;;;;;;;;4978142;28;20065;-80
2021/12/17 09:01:36;;;;;;;12.85;4.97;;;;;;;;;;4975982;28;20050;-78
2021/12/17 09:04:03;;;;;;;14.60;6.13;;;;;;;;;;4971823;28;20121;-78
2021/12/17 09:06:29;;;;;;;16.77;5.55;;;;;;;;;;4984747;28;20078;-78
2021/12/17 09:08:56;;;;;;;14.68;6.13;;;;;;;;;;4971443;28;20187;-78
2021/12/17 09:11:25;;;;;;;16.20;5.72;;;;;;;;;;4988583;28;20059;-78
2021/12/17 09:13:52;;;;;;;14.70;5.20;;;;;;;;;;4996094;28;20121;-78
2021/12/17 09:16:20;;;;;;;11.40;5.10;;;;;;;;;;4980929;28;20082;-77
2021/12/17 09:18:51;;;;;;;12.45;4.68;;;;;;;;;;4990543;28;20086;-78
2021/12/17 09:21:18;;;;;;;12.63;5.85;;;;;;;;;;4973882;28;20535;-78
2021/12/17 09:23:45;;;;;;;13.60;5.05;;;;;;;;;;4972284;28;20067;-77
2021/12/17 09:26:12;;;;;;;13.57;5.55;;;;;;;;;;4977608;28;20054;-77
2021/12/17 09:28:38;;;;;;;11.85;4.63;;;;;;;;;;4960816;28;20051;-78
2021/12/17 09:31:06;;;;;;;13.05;5.63;;;;;;;;;;4957298;28;20090;-78
2021/12/17 09:33:33;;;;;;;15.02;5.18;;;;;;;;;;4975039;28;20082;-78
2021/12/17 09:35:59;;;;;;;14.25;4.93;;;;;;;;;;4974542;28;20055;-77
2021/12/17 09:38:26;;;;;;;15.13;5.18;;;;;;;;;;4992190;28;20058;-78
2021/12/17 09:40:52;;;;;;;16.23;5.10;;;;;;;;;;4974215;28;20632;-78
2021/12/17 09:43:19;;;;;;;11.80;5.05;;;;;;;;;;4974664;28;20193;-77
2021/12/17 09:45:45;;;;;;;14.13;4.50;;;;;;;;;;4988580;28;20647;-77
2021/12/17 09:48:13;;;;;;;13.13;4.97;;;;;;;;;;4976018;28;20517;-77
2021/12/17 09:50:40;;;;;;;10.93;3.88;;;;;;;;;;4986159;28;20109;-78
2021/12/17 09:53:06;;;;;;;11.43;3.92;;;;;;;;;;4986526;28;20090;-76
2021/12/17 09:55:33;;;;;;;7.43;2.80;;;;;;;;;;4988124;28;20477;-76
2021/12/17 09:58:00;;;;;;;7.30;2.70;;;;;;;;;;4969347;28;20895;-77
2021/12/17 10:00:27;;;;;;;7.55;2.75;;;;;;;;;;4976910;28;20860;-78
2021/12/17 10:02:57;;;;;;;6.22;2.78;;;;;;;;;;4973754;28;20514;-77
2021/12/17 10:05:29;;;;;;;7.03;2.38;;;;;;;;;;4990822;28;20061;-77
2021/12/17 10:08:09;;;;;;;4.57;2.03;;;;;;;;;;4987571;28;20050;-78
2021/12/17 10:10:35;;;;;;;9.32;2.38;;;;;;;;;;4978749;28;20054;-76
2021/12/17 10:13:13;;;;;;;5.97;2.08;;;;;;;;;;4972553;28;20055;-78
2021/12/17 10:15:40;;;;;;;6.53;2.50;;;;;;;;;;4989581;28;20094;-78
2021/12/17 10:18:07;;;;;;;7.80;2.40;;;;;;;;;;4976045;28;20055;-79
2021/12/17 10:20:35;;;;;;;6.60;2.70;;;;;;;;;;4975867;28;20054;-78
2021/12/17 10:23:06;;;;;;;6.43;2.58;;;;;;;;;;4983273;28;20149;-78
2021/12/17 10:25:34;;;;;;;5.90;2.65;;;;;;;;;;4975454;28;20101;-77
2021/12/17 10:28:03;;;;;;;7.05;2.42;;;;;;;;;;4975542;28;20054;-78
2021/12/17 10:30:31;;;;;;;5.80;2.50;;;;;;;;;;4992718;28;20114;-79
2021/12/17 10:32:59;;;;;;;5.70;2.60;;;;;;;;;;4974688;28;20050;-78
2021/12/17 10:35:27;;;;;;;6.63;2.72;;;;;;;;;;4973707;28;20152;-77
2021/12/17 10:38:00;;;;;;;5.38;2.30;;;;;;;;;;4975047;28;20043;-79
2021/12/17 10:40:31;;;;;;;5.90;2.53;;;;;;;;;;4982468;28;20108;-79
2021/12/17 10:43:02;;;;;;;4.95;2.33;;;;;;;;;;4992507;28;20628;-78
2021/12/17 10:45:32;;;;;;;4.68;2.22;;;;;;;;;;4971150;28;20082;-79
2021/12/17 10:51:07;;;;;;;4.97;2.38;;;;;;;;;;4991466;28;20093;-78
2021/12/17 10:53:34;;;;;;;6.35;1.85;;;;;;;;;;4971197;28;20813;-78
2021/12/17 10:56:00;;;;;;;4.95;2.15;;;;;;;;;;4992208;28;20086;-78
2021/12/17 10:58:27;;;;;;;5.40;2.00;;;;;;;;;;4991603;28;20054;-78
2021/12/17 11:00:57;;;;;;;5.13;1.92;;;;;;;;;;4993746;28;20564;-78
2021/12/17 11:03:24;;;;;;;5.85;2.10;;;;;;;;;;4974769;28;20039;-79
2021/12/17 11:05:51;;;;;;;5.68;2.22;;;;;;;;;;4991538;28;20055;-77
2021/12/17 11:08:24;;;;;;;4.38;1.92;;;;;;;;;;4991421;28;20172;-78
2021/12/17 11:11:00;;;;;;;4.57;1.70;;;;;;;;;;4986549;28;20130;-76
2021/12/17 11:13:26;;;;;;;4.72;2.35;;;;;;;;;;5000307;28;20086;-78
2021/12/17 11:15:53;;;;;;;4.85;2.20;;;;;;;;;;4998681;28;21007;-77
2021/12/17 11:18:20;;;;;;;4.85;2.00;;;;;;;;;;4976702;28;20063;-78
2021/12/17 11:20:47;;;;;;;5.20;2.42;;;;;;;;;;4989065;28;20113;-79
2021/12/17 11:23:14;;;;;;;4.57;2.03;;;;;;;;;;4970847;28;20554;-77
2021/12/17 11:25:43;;;;;;;5.00;2.15;;;;;;;;;;4964221;28;20054;-77
2021/12/17 11:28:10;;;;;;;4.35;1.98;;;;;;;;;;4969050;28;20391;-78
2021/12/17 11:30:38;;;;;;;8.18;2.50;;;;;;;;;;4973876;28;20974;-79
2021/12/17 11:33:05;;;;;;;6.07;2.00;;;;;;;;;;4990951;28;20063;-78
2021/12/17 11:35:33;;;;;;;5.40;2.05;;;;;;;;;;4975470;28;20059;-77
2021/12/17 11:38:01;;;;;;;5.25;2.03;;;;;;;;;;4972535;28;20067;-78
2021/12/17 11:40:36;;;;;;;4.28;1.88;;;;;;;;;;4974163;28;20176;-79
2021/12/17 11:43:15;;;;;;;4.75;1.88;;;;;;;;;;4971632;28;20054;-78
2021/12/17 11:45:42;;;;;;;4.32;2.00;;;;;;;;;;4980651;28;20078;-79
2021/12/17 11:48:17;;;;;;;6.55;1.83;;;;;;;;;;4968091;28;20098;-78
2021/12/17 11:50:45;;;;;;;4.57;1.90;;;;;;;;;;4971262;28;20051;-79
2021/12/17 11:53:29;;;;;;;4.40;2.08;;;;;;;;;;4982400;28;20083;-78
2021/12/17 11:55:57;;;;;;;6.10;2.03;;;;;;;;;;4971768;28;20110;-78
2021/12/17 11:58:41;;;;;;;5.28;2.40;;;;;;;;;;4990104;28;20086;-78
2021/12/17 12:01:08;;;;;;;4.85;2.30;;;;;;;;;;4980361;28;20922;-77
2021/12/17 12:03:34;;;;;;;5.20;2.22;;;;;;;;;;4996066;28;20572;-79
2021/12/17 12:06:01;;;;;;;4.97;2.40;;;;;;;;;;4981410;28;20064;-79
2021/12/17 12:08:31;;;;;;;5.05;2.17;;;;;;;;;;4989071;28;20046;-78
2021/12/17 12:11:30;;;;;;;5.07;2.45;;;;;;;;;;4974871;28;20043;-78
2021/12/17 12:14:00;;;;;;;5.53;2.30;;;;;;;;;;4950984;28;20058;-78
2021/12/17 12:16:28;;;;;;;5.13;2.38;;;;;;;;;;4979426;28;20130;-77
2021/12/17 12:18:57;;;;;;;5.55;2.60;;;;;;;;;;4983946;28;20047;-78
2021/12/17 12:21:24;;;;;;;6.65;2.55;;;;;;;;;;4976275;28;20051;-77
2021/12/17 12:23:53;;;;;;;6.55;2.78;;;;;;;;;;4984386;28;20702;-78
2021/12/17 12:26:20;;;;;;;6.07;2.67;;;;;;;;;;4981087;28;21064;-78
2021/12/17 12:28:50;;;;;;;5.68;2.60;;;;;;;;;;4986233;28;20112;-78
2021/12/17 12:31:38;;;;;;;6.00;2.83;;;;;;;;;;4979661;28;20096;-78
2021/12/17 12:34:06;;;;;;;5.55;2.40;;;;;;;;;;4994304;28;20138;-78
2021/12/17 12:36:54;;;;;;;7.10;2.83;;;;;;;;;;4975881;28;20545;-77
2021/12/17 12:39:38;;;;;;;5.32;2.75;;;;;;;;;;4995645;28;20090;-76
2021/12/17 12:42:07;;;;;;;5.85;2.80;;;;;;;;;;4988324;28;20069;-77
2021/12/17 12:44:39;;;;;;;6.13;2.70;;;;;;;;;;4968542;28;20044;-77
2021/12/17 12:47:07;;;;;;;6.22;2.70;;;;;;;;;;4992816;28;20126;-77
2021/12/17 12:49:50;;;;;;;6.97;2.60;;;;;;;;;;4995951;28;20055;-78
2021/12/17 12:52:28;;;;;;;5.82;1.98;;;;;;;;;;4986027;28;20567;-78
2021/12/17 12:54:59;;;;;;;5.47;2.10;;;;;;;;;;4990551;28;20054;-77
2021/12/17 12:57:30;;;;;;;5.35;2.28;;;;;;;;;;4991217;28;20745;-78
2021/12/17 13:00:00;;;;;;;5.55;2.45;;;;;;;;;;4969643;28;20042;-78
2021/12/17 13:02:27;;;;;;;5.47;2.25;;;;;;;;;;4998263;28;20054;-77
2021/12/17 13:04:57;;;;;;;5.03;2.40;;;;;;;;;;4973188;28;20844;-77
2021/12/17 13:07:34;;;;;;;5.50;2.35;;;;;;;;;;4990306;28;20536;-77
2021/12/17 13:10:08;;;;;;;5.13;2.10;;;;;;;;;;4997350;28;20141;-77
2021/12/17 13:12:35;;;;;;;4.68;2.30;;;;;;;;;;4972516;28;20121;-77
2021/12/17 13:15:18;;;;;;;4.38;2.25;;;;;;;;;;4968883;28;20997;-78
2021/12/17 13:21:02;;;;;;;5.68;2.92;;;;;;;;;;4989456;28;20050;-77
2021/12/17 13:23:30;;;;;;;6.95;3.03;;;;;;;;;;4978745;28;20054;-77
2021/12/17 13:26:00;;;;;;;5.93;2.80;;;;;;;;;;4992557;28;20059;-78
2021/12/17 13:28:26;;;;;;;5.57;3.30;;;;;;;;;;4989801;28;20102;-78
2021/12/17 13:30:54;;;;;;;6.32;3.20;;;;;;;;;;5001440;28;20054;-78
2021/12/17 13:33:20;;;;;;;5.78;2.72;;;;;;;;;;4972129;28;20052;-78
2021/12/17 13:35:47;;;;;;;6.93;3.65;;;;;;;;;;4981737;28;20043;-78
2021/12/17 13:38:13;;;;;;;7.30;3.28;;;;;;;;;;4974746;28;20058;-78
2021/12/17 13:40:39;;;;;;;5.97;3.33;;;;;;;;;;4972784;28;20055;-79
2021/12/17 13:43:06;;;;;;;7.00;3.40;;;;;;;;;;4990860;28;20066;-79
2021/12/17 13:45:32;;;;;;;8.30;3.58;;;;;;;;;;4980974;28;20721;-78
2021/12/17 13:47:58;;;;;;;6.47;3.25;;;;;;;;;;4978745;28;20079;-77
2021/12/17 13:50:25;;;;;;;7.20;3.30;;;;;;;;;;4984746;28;20891;-78
2021/12/17 13:52:53;;;;;;;6.45;3.15;;;;;;;;;;5010095;28;20085;-78
2021/12/17 13:55:25;;;;;;;8.10;3.70;;;;;;;;;;4985194;28;20058;-78
2021/12/17 13:57:52;;;;;;;6.68;3.40;;;;;;;;;;4971699;28;20063;-77
2021/12/17 14:00:23;;;;;;;12.02;3.22;;;;;;;;;;4971860;28;20130;-77
2021/12/17 14:02:50;;;;;;;5.72;3.22;;;;;;;;;;4974215;28;20561;-77
2021/12/17 14:05:21;;;;;;;6.20;3.30;;;;;;;;;;4971740;28;20880;-78
2021/12/17 14:07:47;;;;;;;;;;;;;;;;;;4992251;28;20113;-78
2021/12/17 14:10:18;;;;;;;7.10;3.67;;;;;;;;;;4976198;28;48104;-77
2021/12/17 14:12:45;;;;;;;7.85;3.58;;;;;;;;;;4974076;28;20117;-77
2021/12/17 14:15:33;;;;;;;7.00;3.58;;;;;;;;;;4988467;28;20075;-78
2021/12/17 14:18:01;;;;;;;9.38;4.35;;;;;;;;;;4991471;28;20476;-77
2021/12/17 14:20:29;;;;;;;7.82;4.05;;;;;;;;;;4969980;28;20055;-78
2021/12/17 14:22:56;;;;;;;6.35;3.92;;;;;;;;;;4976225;28;20058;-78
2021/12/17 14:25:44;;;;;;;8.43;4.00;;;;;;;;;;4972168;28;20059;-76
2021/12/17 14:28:30;;;;;;;9.02;4.03;;;;;;;;;;4957847;28;20058;-78
2021/12/17 14:30:57;;;;;;;7.28;3.80;;;;;;;;;;4972687;28;20493;-78
2021/12/17 14:33:25;;;;;;;8.00;3.80;;;;;;;;;;4977568;28;20050;-77
2021/12/17 14:35:52;;;;;;;7.47;3.95;;;;;;;;;;4984105;28;20123;-78
2021/12/17 14:38:20;;;;;;;12.50;4.40;;;;;;;;;;4972123;28;20082;-77
2021/12/17 14:40:57;;;;;;;11.93;4.68;;;;;;;;;;4972846;28;20054;-78
2021/12/17 14:43:25;;;;;;;10.48;4.45;;;;;;;;;;4988982;28;20058;-77
2021/12/17 14:46:12;;;;;;;8.52;4.57;;;;;;;;;;4974959;28;20089;-78
2021/12/17 14:48:58;;;;;;;7.90;4.40;;;;;;;;;;4973342;28;20098;-78
2021/12/17 15:02:37;;;;;;;11.68;5.05;;;;;;;;;;4988891;28;20047;-78
2021/12/17 15:04:55;;;;;;;10.02;4.80;;;;;;;;;;4982742;28;20086;-78
2021/12/17 15:07:23;;;;;;;9.05;5.30;;;;;;;;;;4986260;28;20065;-78
2021/12/17 15:09:49;;;;;;;10.20;4.90;;;;;;;;;;4970997;28;20061;-78
2021/12/17 15:14:59;;;;;;;9.90;5.43;;;;;;;;;;4982363;28;20142;-77
2021/12/17 15:17:25;;;;;;;10.52;5.38;;;;;;;;;;4969340;28;20318;-77
2021/12/17 15:20:12;;;;;;;10.48;5.05;;;;;;;;;;4983581;28;20059;-79
2021/12/17 15:22:39;;;;;;;9.00;5.10;;;;;;;;;;4973285;28;20044;-78
2021/12/17 15:25:06;;;;;;;11.93;5.93;;;;;;;;;;4971087;28;20148;-78
2021/12/17 15:27:33;;;;;;;11.55;5.57;;;;;;;;;;4982716;28;20063;-79
2021/12/17 15:30:00;;;;;;;10.95;5.80;;;;;;;;;;4973934;28;20533;-78
2021/12/17 15:32:27;;;;;;;13.00;6.13;;;;;;;;;;4975608;28;20097;-78
2021/12/17 15:34:53;;;;;;;12.82;6.30;;;;;;;;;;4972691;28;20646;-78
2021/12/17 15:37:20;;;;;;;12.20;5.85;;;;;;;;;;4992879;28;20055;-79
2021/12/17 15:39:46;;;;;;;12.48;6.57;;;;;;;;;;4992524;28;20141;-77
2021/12/17 15:42:13;;;;;;;12.20;6.32;;;;;;;;;;4983798;28;20038;-78
2021/12/17 15:44:39;;;;;;;13.02;6.65;;;;;;;;;;4983868;28;20055;-77
2021/12/17 15:47:08;;;;;;;13.77;5.95;;;;;;;;;;4966964;28;20146;-78
2021/12/17 15:49:37;;;;;;;13.20;6.60;;;;;;;;;;4962666;28;20106;-79
2021/12/17 15:52:07;;;;;;;15.15;6.90;;;;;;;;;;4980710;28;21413;-78
2021/12/17 15:54:35;;;;;;;15.55;7.40;;;;;;;;;;4998126;28;20081;-79
2021/12/17 15:57:02;;;;;;;14.73;8.07;;;;;;;;;;4969343;28;20517;-78
2021/12/17 15:59:28;;;;;;;14.85;7.45;;;;;;;;;;4971776;28;20061;-77
2021/12/17 16:01:55;;;;;;;13.05;7.28;;;;;;;;;;4971803;28;20042;-78
2021/12/17 16:04:21;;;;;;;14.57;8.00;;;;;;;;;;4983809;28;20058;-78
2021/12/17 16:06:48;;;;;;;15.88;8.25;;;;;;;;;;4997947;28;20093;-77
2021/12/17 16:09:49;;;;;;;18.52;8.75;;;;;;;;;;4970298;28;20087;-79
2021/12/17 16:16:51;;;;;;;18.30;9.20;;;;;;;;;;4996105;28;21044;-79
2021/12/17 16:23:09;;;;;;;17.75;8.93;;;;;;;;;;4995065;28;20525;-77
2021/12/17 16:25:35;;;;;;;22.25;9.38;;;;;;;;;;4969194;28;20066;-77
2021/12/17 16:28:02;;;;;;;25.15;10.35;;;;;;;;;;4974590;28;20083;-78
2021/12/17 16:30:30;;;;;;;21.10;9.07;;;;;;;;;;4976483;28;20063;-79
2021/12/17 16:32:57;;;;;;;17.85;8.52;;;;;;;;;;4988033;28;20059;-79
2021/12/17 16:35:23;;;;;;;21.67;9.20;;;;;;;;;;4975636;28;20573;-78
2021/12/17 16:37:50;;;;;;;17.98;8.50;;;;;;;;;;4976436;28;20057;-78
2021/12/17 16:40:16;;;;;;;20.00;9.57;;;;;;;;;;4972438;28;20075;-79
2021/12/17 16:42:43;;;;;;;24.00;9.30;;;;;;;;;;4979717;28;20089;-79
2021/12/17 16:47:45;;;;;;;19.63;9.02;;;;;;;;;;4990537;28;20081;-79
2021/12/17 16:50:12;;;;;;;22.45;9.55;;;;;;;;;;4976753;28;20121;-79
2021/12/17 16:52:39;;;;;;;19.83;8.40;;;;;;;;;;4976814;28;20043;-78
2021/12/17 16:55:06;;;;;;;23.48;10.40;;;;;;;;;;4977101;28;20061;-79
2021/12/17 16:57:33;;;;;;;19.88;9.00;;;;;;;;;;4976169;28;20035;-78
2021/12/17 17:00:00;;;;;;;20.73;9.38;;;;;;;;;;4974789;28;20117;-79
2021/12/17 17:02:26;;;;;;;19.00;8.77;;;;;;;;;;4975729;28;20113;-79
2021/12/17 17:04:52;;;;;;;20.15;9.85;;;;;;;;;;4974054;28;20130;-78
2021/12/17 17:07:19;;;;;;;24.25;9.70;;;;;;;;;;4974632;28;20050;-78
2021/12/17 17:09:45;;;;;;;22.40;9.35;;;;;;;;;;4988149;28;21419;-78
2021/12/17 17:12:13;;;;;;;21.30;9.52;;;;;;;;;;4974984;28;20101;-82
2021/12/17 17:14:39;;;;;;;19.80;9.55;;;;;;;;;;4966838;28;20505;-80
2021/12/17 17:17:06;;;;;;;22.48;10.10;;;;;;;;;;4998175;28;20090;-81
2021/12/17 17:19:33;;;;;;;20.77;8.82;;;;;;;;;;4990797;28;20106;-82
2021/12/17 17:21:59;;;;;;;20.48;8.68;;;;;;;;;;4998080;28;20119;-81
2021/12/17 17:24:44;;;;;;;18.27;7.72;;;;;;;;;;5005994;28;20031;-81
2021/12/17 17:27:46;;;;;;;18.60;7.60;;;;;;;;;;4909528;29;20066;-81
2021/12/17 17:30:13;;;;;;;22.20;9.98;;;;;;;;;;4902698;29;20599;-81
2021/12/17 17:32:40;;;;;;;18.73;8.43;;;;;;;;;;4921165;29;20545;-80
2021/12/17 17:35:07;;;;;;;18.60;8.00;;;;;;;;;;4899404;29;20084;-80
2021/12/17 17:37:34;;;;;;;16.50;6.65;;;;;;;;;;4919436;29;20053;-80
2021/12/17 17:40:00;;;;;;;12.80;5.88;;;;;;;;;;4898284;29;20108;-82
2021/12/17 17:42:30;;;;;;;10.57;5.25;;;;;;;;;;4918107;29;20222;-80
2021/12/17 17:44:57;;;;;;;11.35;5.70;;;;;;;;;;4912345;29;20057;-81
2021/12/17 17:47:23;;;;;;;11.63;5.90;;;;;;;;;;4917566;29;20555;-80
2021/12/17 17:49:53;;;;;;;11.02;5.70;;;;;;;;;;4911437;29;20063;-80
2021/12/17 17:52:20;;;;;;;9.63;4.47;;;;;;;;;;4966506;28;20050;-81
2021/12/17 17:54:46;;;;;;;9.55;4.25;;;;;;;;;;4990427;28;20082;-80
2021/12/17 17:57:13;;;;;;;8.75;4.00;;;;;;;;;;4972357;28;20557;-81